Time;durP1;ratioP1;P1;durP2;ratioP2;P2;SDS_P1;SDS_P2;PMS_P1;PMS_P2;Temp;Humidity;BMP_temperature;BMP_pressure;BME280_temperature;BME280_humidity;BME280_pressure;Samples;Min_cycle;Max_cycle;Signal;HPM_P1;HPM_P2
2021/07/08 00:01:18;;;;;;;;;;;;;;;;;;4907518;29;19916;-94
2021/07/08 00:03:44;;;;;;;;;;;;;;;;;;4898643;29;19920;-94
2021/07/08 00:06:10;;;;;;;;;;;;;;;;;;4912123;29;20002;-94
2021/07/08 00:08:36;;;;;;;;;;;;;;;;;;4899795;29;20540;-94
2021/07/08 00:11:02;;;;;;;;;;;;;;;;;;4923705;29;19922;-93
2021/07/08 00:13:28;;;;;;;;;;;;;;;;;;4901676;29;19923;-94
2021/07/08 00:15:54;;;;;;;;;;;;;;;;;;4913402;29;20333;-93
2021/07/08 00:18:20;;;;;;;;;;;;;;;;;;4894602;29;20379;-93
2021/07/08 00:20:46;;;;;;;;;;;;;;;;;;4907634;29;19930;-93
2021/07/08 00:23:12;;;;;;;;;;;;;;;;;;4874809;29;19924;-93
2021/07/08 00:25:38;;;;;;;;;;;;;;;;;;4905210;29;19922;-94
2021/07/08 00:28:06;;;;;;;;;;;;;;;;;;4894833;29;19915;-94
2021/07/08 00:30:33;;;;;;;;;;;;;;;;;;4881302;29;19924;-93
2021/07/08 00:32:59;;;;;;;;;;;;;;;;;;4887664;29;20376;-94
2021/07/08 00:35:25;;;;;;;;;;;;;;;;;;4882565;29;19917;-94
2021/07/08 00:37:51;;;;;;;;;;;;;;;;;;4900052;29;19963;-93
2021/07/08 00:40:17;;;;;;;;;;;;;;;;;;4903372;29;19920;-93
2021/07/08 00:42:43;;;;;;;;;;;;;;;;;;4887756;29;19926;-93
2021/07/08 00:45:09;;;;;;;;;;;;;;;;;;4876360;29;19916;-94
2021/07/08 00:47:35;;;;;;;;;;;;;;;;;;4891110;29;19912;-94
2021/07/08 00:50:01;;;;;;;;;;;;;;;;;;4880880;29;19923;-94
2021/07/08 00:52:27;;;;;;;;;;;;;;;;;;4887648;29;19998;-93
2021/07/08 00:54:53;;;;;;;;;;;;;;;;;;4884725;29;20355;-94
2021/07/08 00:57:19;;;;;;;;;;;;;;;;;;4911073;29;20292;-93
2021/07/08 00:59:45;;;;;;;;;;;;;;;;;;4884547;29;19916;-93
2021/07/08 01:02:11;;;;;;;;;;;;;;;;;;4902487;29;20455;-94
2021/07/08 01:04:37;;;;;;;;;;;;;;;;;;4886811;29;19916;-94
2021/07/08 01:07:03;;;;;;;;;;;;;;;;;;4898326;29;19951;-94
2021/07/08 01:09:29;;;;;;;;;;;;;;;;;;4888985;29;19915;-94
2021/07/08 01:11:56;;;;;;;;;;;;;;;;;;4885589;29;19916;-93
2021/07/08 01:14:22;;;;;;;;;;;;;;;;;;4919928;29;19935;-94
2021/07/08 01:16:48;;;;;;;;;;;;;;;;;;4897012;29;19915;-94
2021/07/08 01:19:14;;;;;;;;;;;;;;;;;;4902946;29;19987;-94
2021/07/08 01:21:40;;;;;;;;;;;;;;;;;;4925404;29;19931;-93
2021/07/08 01:24:07;;;;;;;;;;;;;;;;;;4931675;29;19916;-94
2021/07/08 01:26:33;;;;;;;;;;;;;;;;;;4926669;29;19914;-93
2021/07/08 01:28:59;;;;;;;;;;;;;;;;;;4928215;29;20330;-92
2021/07/08 01:31:25;;;;;;;;;;;;;;;;;;4928793;29;20015;-93
2021/07/08 01:33:51;;;;;;;;;;;;;;;;;;4931748;29;20405;-93
2021/07/08 01:36:17;;;;;;;;;;;;;;;;;;4932550;29;19911;-93
2021/07/08 01:38:43;;;;;;;;;;;;;;;;;;4917708;29;19916;-93
2021/07/08 01:41:09;;;;;;;;;;;;;;;;;;4923988;29;19915;-93
2021/07/08 01:43:37;;;;;;;;;;;;;;;;;;4922287;29;19903;-94
2021/07/08 01:46:03;;;;;;;;;;;;;;;;;;4932970;28;20228;-93
2021/07/08 01:48:29;;;;;;;;;;;;;;;;;;4926030;29;19903;-93
2021/07/08 01:50:55;;;;;;;;;;;;;;;;;;4930263;28;19979;-94
2021/07/08 01:53:21;;;;;;;;;;;;;;;;;;4923708;29;19919;-94
2021/07/08 01:55:47;;;;;;;;;;;;;;;;;;4938445;29;19903;-93
2021/07/08 01:58:13;;;;;;;;;;;;;;;;;;4937907;28;19916;-94
2021/07/08 02:00:39;;;;;;;;;;;;;;;;;;4897036;29;20367;-94
2021/07/08 02:03:05;;;;;;;;;;;;;;;;;;4914473;29;19931;-95
2021/07/08 02:05:31;;;;;;;;;;;;;;;;;;4917336;29;19915;-93
2021/07/08 02:07:57;;;;;;;;;;;;;;;;;;4918985;29;19954;-94
2021/07/08 02:10:23;;;;;;;;;;;;;;;;;;4915879;29;19915;-95
2021/07/08 02:12:50;;;;;;;;;;;;;;;;;;4923176;29;19939;-94
2021/07/08 02:15:16;;;;;;;;;;;;;;;;;;4927990;29;19926;-94
2021/07/08 02:17:42;;;;;;;;;;;;;;;;;;4923275;29;19915;-95
2021/07/08 02:20:08;;;;;;;;;;;;;;;;;;4901719;29;19926;-95
2021/07/08 02:22:34;;;;;;;;;;;;;;;;;;4917344;29;19924;-95
2021/07/08 02:25:00;;;;;;;;;;;;;;;;;;4920859;29;20014;-94
2021/07/08 02:27:26;;;;;;;;;;;;;;;;;;4900914;29;19971;-94
2021/07/08 02:29:52;;;;;;;;;;;;;;;;;;4913940;29;19916;-95
2021/07/08 02:32:18;;;;;;;;;;;;;;;;;;4902509;29;19922;-93
2021/07/08 02:34:47;;;;;;;;;;;;;;;;;;4909625;29;19915;-94
2021/07/08 02:37:14;;;;;;;;;;;;;;;;;;4904724;29;20331;-95
2021/07/08 02:39:40;;;;;;;;;;;;;;;;;;4904611;29;19915;-94
2021/07/08 02:42:06;;;;;;;;;;;;;;;;;;4914216;29;19926;-94
2021/07/08 02:44:32;;;;;;;;;;;;;;;;;;4899620;29;19939;-94
2021/07/08 02:46:58;;;;;;;;;;;;;;;;;;4912871;29;19916;-94
2021/07/08 02:49:24;;;;;;;;;;;;;;;;;;4911824;29;19916;-94
2021/07/08 02:51:50;;;;;;;;;;;;;;;;;;4911572;29;19927;-96
2021/07/08 02:54:16;;;;;;;;;;;;;;;;;;4911878;29;19931;-95
2021/07/08 02:56:42;;;;;;;;;;;;;;;;;;4893377;29;20066;-95
2021/07/08 02:59:09;;;;;;;;;;;;;;;;;;4896669;29;19958;-94
2021/07/08 03:01:35;;;;;;;;;;;;;;;;;;4913601;29;19974;-94
2021/07/08 03:04:01;;;;;;;;;;;;;;;;;;4907657;29;19916;-94
2021/07/08 03:06:27;;;;;;;;;;;;;;;;;;4907532;29;20383;-94
2021/07/08 03:08:53;;;;;;;;;;;;;;;;;;4891225;29;20014;-94
2021/07/08 03:11:20;;;;;;;;;;;;;;;;;;4894590;29;19932;-94
2021/07/08 03:13:49;;;;;;;;;;;;;;;;;;4893904;29;19921;-93
2021/07/08 03:16:15;;;;;;;;;;;;;;;;;;4908010;29;19922;-94
2021/07/08 03:18:43;;;;;;;;;;;;;;;;;;4889659;29;19915;-94
2021/07/08 03:21:10;;;;;;;;;;;;;;;;;;4908345;29;19947;-95
2021/07/08 03:23:36;;;;;;;;;;;;;;;;;;4891238;29;19935;-95
2021/07/08 03:26:02;;;;;;;;;;;;;;;;;;4893738;29;20018;-95
2021/07/08 03:28:28;;;;;;;;;;;;;;;;;;4893965;29;19919;-94
2021/07/08 03:30:54;;;;;;;;;;;;;;;;;;4888974;29;19922;-94
2021/07/08 03:33:20;;;;;;;;;;;;;;;;;;4895897;29;19992;-93
2021/07/08 03:35:46;;;;;;;;;;;;;;;;;;4891985;29;20470;-96
2021/07/08 03:38:12;;;;;;;;;;;;;;;;;;4892161;29;20014;-94
2021/07/08 03:40:38;;;;;;;;;;;;;;;;;;4896594;29;19915;-94
2021/07/08 03:43:04;;;;;;;;;;;;;;;;;;4910371;29;19919;-95
2021/07/08 03:45:30;;;;;;;;;;;;;;;;;;4894099;29;19923;-94
2021/07/08 03:47:56;;;;;;;;;;;;;;;;;;4913623;29;20002;-95
2021/07/08 03:50:22;;;;;;;;;;;;;;;;;;4898763;29;20003;-94
2021/07/08 03:52:48;;;;;;;;;;;;;;;;;;4900990;29;19915;-95
2021/07/08 03:55:14;;;;;;;;;;;;;;;;;;4913686;29;19919;-95
2021/07/08 03:57:53;;;;;;;;;;;;;;;;;;4893468;29;20006;-95
2021/07/08 04:00:19;;;;;;;;;;;;;;;;;;4894670;29;19955;-95
2021/07/08 04:02:45;;;;;;;;;;;;;;;;;;4910593;29;19919;-95
2021/07/08 04:05:11;;;;;;;;;;;;;;;;;;4895006;29;19923;-95
2021/07/08 04:07:37;;;;;;;;;;;;;;;;;;4897258;29;20027;-94
2021/07/08 04:10:03;;;;;;;;;;;;;;;;;;4891996;29;19920;-94
2021/07/08 04:12:29;;;;;;;;;;;;;;;;;;4909176;29;19919;-94
2021/07/08 04:14:55;;;;;;;;;;;;;;;;;;4902576;29;20018;-94
2021/07/08 04:17:21;;;;;;;;;;;;;;;;;;4894654;29;19919;-95
2021/07/08 04:19:47;;;;;;;;;;;;;;;;;;4897165;29;19951;-94
2021/07/08 04:22:13;;;;;;;;;;;;;;;;;;4883645;29;19928;-95
2021/07/08 04:24:39;;;;;;;;;;;;;;;;;;4892587;29;19919;-95
2021/07/08 04:27:05;;;;;;;;;;;;;;;;;;4895677;29;20384;-95
2021/07/08 04:29:31;;;;;;;;;;;;;;;;;;4881426;29;19915;-95
2021/07/08 04:31:58;;;;;;;;;;;;;;;;;;4875863;29;19960;-95
2021/07/08 04:34:24;;;;;;;;;;;;;;;;;;4894243;29;19917;-95
2021/07/08 04:36:50;;;;;;;;;;;;;;;;;;4880816;29;19968;-95
2021/07/08 04:39:16;;;;;;;;;;;;;;;;;;4900026;29;20103;-95
2021/07/08 04:41:42;;;;;;;;;;;;;;;;;;4878864;29;20007;-95
2021/07/08 04:44:08;;;;;;;;;;;;;;;;;;4882278;29;19930;-95
2021/07/08 04:46:34;;;;;;;;;;;;;;;;;;4885223;29;19916;-95
2021/07/08 04:49:00;;;;;;;;;;;;;;;;;;4881639;29;19916;-95
2021/07/08 04:51:26;;;;;;;;;;;;;;;;;;4897624;29;20545;-96
2021/07/08 04:53:52;;;;;;;;;;;;;;;;;;4880928;29;19919;-95
2021/07/08 04:56:18;;;;;;;;;;;;;;;;;;4884921;29;19916;-95
2021/07/08 04:58:44;;;;;;;;;;;;;;;;;;4896215;29;19917;-95
2021/07/08 05:01:10;;;;;;;;;;;;;;;;;;4882312;29;21583;-96
2021/07/08 05:03:37;;;;;;;;;;;;;;;;;;4888283;29;19915;-96
2021/07/08 05:06:03;;;;;;;;;;;;;;;;;;4890211;29;19980;-96
2021/07/08 05:08:29;;;;;;;;;;;;;;;;;;4892825;29;19900;-96
2021/07/08 05:10:55;;;;;;;;;;;;;;;;;;4887097;29;20015;-96
2021/07/08 05:13:21;;;;;;;;;;;;;;;;;;4886405;29;19952;-96
2021/07/08 05:15:47;;;;;;;;;;;;;;;;;;4885234;29;19966;-94
2021/07/08 05:18:13;;;;;;;;;;;;;;;;;;4952058;23;19970;-84
2021/07/08 05:20:39;;;;;;;;;;;;;;;;;;4934959;28;19922;-83
2021/07/08 05:23:14;;;;;;;;;;;;;;;;;;4936565;28;20418;-84
2021/07/08 05:25:40;;;;;;;;;;;;;;;;;;4936064;28;19918;-85
2021/07/08 05:28:06;;;;;;;;;;;;;;;;;;4935655;28;21351;-85
2021/07/08 05:30:32;;;;;;;;;;;;;;;;;;4927639;28;19923;-85
2021/07/08 05:32:59;;;;;;;;;;;;;;;;;;4921888;29;19970;-86
2021/07/08 05:35:25;;;;;;;;;;;;;;;;;;4923858;29;19925;-86
2021/07/08 05:37:52;;;;;;;;;;;;;;;;;;4919527;29;19914;-85
2021/07/08 05:40:19;;;;;;;;;;;;;;;;;;4920131;29;19915;-86
2021/07/08 05:42:45;;;;;;;;;;;;;;;;;;4921337;29;20287;-86
2021/07/08 05:45:11;;;;;;;;;;;;;;;;;;4922278;29;19930;-86
2021/07/08 05:47:37;;;;;;;;;;;;;;;;;;4922971;29;19922;-86
2021/07/08 05:50:03;;;;;;;;;;;;;;;;;;4919097;29;20264;-86
2021/07/08 05:52:29;;;;;;;;;;;;;;;;;;4922917;29;19933;-86
2021/07/08 05:54:55;;;;;;;;;;;;;;;;;;4915704;29;19914;-87
2021/07/08 05:57:21;;;;;;;;;;;;;;;;;;4921112;29;19921;-86
2021/07/08 05:59:47;;;;;;;;;;;;;;;;;;4923709;29;19923;-86
2021/07/08 06:02:13;;;;;;;;;;;;;;;;;;4923672;29;20346;-85
2021/07/08 06:04:39;;;;;;;;;;;;;;;;;;4923955;29;19922;-86
2021/07/08 06:07:05;;;;;;;;;;;;;;;;;;4920087;29;20041;-85
2021/07/08 06:09:31;;;;;;;;;;;;;;;;;;4929039;29;19921;-85
2021/07/08 06:11:58;;;;;;;;;;;;;;;;;;4938767;28;19993;-86
2021/07/08 06:14:24;;;;;;;;;;;;;;;;;;4922776;29;20013;-86
2021/07/08 06:16:50;;;;;;;;;;;;;;;;;;4922754;29;19926;-84
2021/07/08 06:19:16;;;;;;;;;;;;;;;;;;4935608;28;20359;-85
2021/07/08 06:21:42;;;;;;;;;;;;;;;;;;4922367;29;20001;-86
2021/07/08 06:24:08;;;;;;;;;;;;;;;;;;4917856;29;19919;-86
2021/07/08 06:26:34;;;;;;;;;;;;;;;;;;4925031;29;19915;-87
2021/07/08 06:29:01;;;;;;;;;;;;;;;;;;4918135;29;19969;-87
2021/07/08 06:31:27;;;;;;;;;;;;;;;;;;4910528;29;19923;-87
2021/07/08 06:33:53;;;;;;;;;;;;;;;;;;4916230;29;19938;-85
2021/07/08 06:36:19;;;;;;;;;;;;;;;;;;4918996;29;19915;-85
2021/07/08 06:38:45;;;;;;;;;;;;;;;;;;4925150;29;19915;-87
2021/07/08 06:41:11;;;;;;;;;;;;;;;;;;4922990;29;19977;-86
2021/07/08 06:43:37;;;;;;;;;;;;;;;;;;4916547;29;20005;-86
2021/07/08 06:46:03;;;;;;;;;;;;;;;;;;4918484;29;19966;-87
2021/07/08 06:48:29;;;;;;;;;;;;;;;;;;4918397;29;19978;-87
2021/07/08 06:50:55;;;;;;;;;;;;;;;;;;4922799;29;19919;-88
2021/07/08 06:53:21;;;;;;;;;;;;;;;;;;4942373;28;19926;-88
2021/07/08 06:55:48;;;;;;;;;;;;;;;;;;4927954;29;19915;-87
2021/07/08 06:58:14;;;;;;;;;;;;;;;;;;4935019;29;19919;-87
2021/07/08 07:00:41;;;;;;;;;;;;;;;;;;4945876;28;20005;-88
2021/07/08 07:03:08;;;;;;;;;;;;;;;;;;4917917;29;19930;-90
2021/07/08 07:05:34;;;;;;;;;;;;;;;;;;4921390;29;19915;-88
2021/07/08 07:08:03;;;;;;;;;;;;;;;;;;4925785;29;19919;-89
2021/07/08 07:10:30;;;;;;;;;;;;;;;;;;4927940;29;19915;-89
2021/07/08 07:12:56;;;;;;;;;;;;;;;;;;4921873;29;19929;-89
2021/07/08 07:15:22;;;;;;;;;;;;;;;;;;4929723;29;19914;-89
2021/07/08 07:17:48;;;;;;;;;;;;;;;;;;4926940;29;19979;-90
2021/07/08 07:20:14;;;;;;;;;;;;;;;;;;4910683;29;20009;-90
2021/07/08 07:22:44;;;;;;;;;;;;;;;;;;4910973;29;20842;-89
2021/07/08 07:25:11;;;;;;;;;;;;;;;;;;4913000;29;20410;-88
2021/07/08 07:27:37;;;;;;;;;;;;;;;;;;4910859;29;20287;-89
2021/07/08 07:30:05;;;;;;;;;;;;;;;;;;4911788;29;19931;-91
2021/07/08 07:32:31;;;;;;;;;;;;;;;;;;4929234;29;19922;-92
2021/07/08 07:34:57;;;;;;;;;;;;;;;;;;4926484;29;20074;-89
2021/07/08 07:37:23;;;;;;;;;;;;;;;;;;4925573;29;19925;-89
2021/07/08 07:39:49;;;;;;;;;;;;;;;;;;4910100;29;19970;-90
2021/07/08 07:42:15;;;;;;;;;;;;;;;;;;4900826;29;19927;-89
2021/07/08 07:44:44;;;;;;;;;;;;;;;;;;4903848;29;20015;-90
2021/07/08 07:47:10;;;;;;;;;;;;;;;;;;4919557;29;20053;-90
2021/07/08 07:49:36;;;;;;;;;;;;;;;;;;4917872;29;19915;-89
2021/07/08 07:52:02;;;;;;;;;;;;;;;;;;4913883;29;19993;-88
2021/07/08 07:54:29;;;;;;;;;;;;;;;;;;4914583;29;19919;-91
2021/07/08 07:56:55;;;;;;;;;;;;;;;;;;4909714;29;20549;-90
2021/07/08 07:59:21;;;;;;;;;;;;;;;;;;4909230;29;19990;-85
2021/07/08 08:01:47;;;;;;;;;;;;;;;;;;4913460;29;19927;-87
2021/07/08 08:04:13;;;;;;;;;;;;;;;;;;4903111;29;21234;-87
2021/07/08 08:09:24;;;;;;;;;;;;;;;;;;4919136;29;19959;-90
2021/07/08 08:11:50;;;;;;;;;;;;;;;;;;4911655;29;19915;-89
2021/07/08 08:14:16;;;;;;;;;;;;;;;;;;4927779;29;20009;-89
2021/07/08 08:16:42;;;;;;;;;;;;;;;;;;4910925;29;19957;-91
2021/07/08 08:19:08;;;;;;;;;;;;;;;;;;4908932;29;19918;-91
2021/07/08 08:21:34;;;;;;;;;;;;;;;;;;4909875;29;19938;-89
2021/07/08 08:24:00;;;;;;;;;;;;;;;;;;4895774;29;20363;-89
2021/07/08 08:26:26;;;;;;;;;;;;;;;;;;4908013;29;19922;-90
2021/07/08 08:28:52;;;;;;;;;;;;;;;;;;4908561;29;19959;-92
2021/07/08 08:31:19;;;;;;;;;;;;;;;;;;4897190;29;19978;-89
2021/07/08 08:33:45;;;;;;;;;;;;;;;;;;4918311;29;19915;-91
2021/07/08 08:36:11;;;;;;;;;;;;;;;;;;4891818;29;19923;-89
2021/07/08 08:38:37;;;;;;;;;;;;;;;;;;4889741;29;20284;-90
2021/07/08 08:41:03;;;;;;;;;;;;;;;;;;4902482;29;20025;-89
2021/07/08 08:43:29;;;;;;;;;;;;;;;;;;4905621;29;20371;-91
2021/07/08 08:45:56;;;;;;;;;;;;;;;;;;4892826;29;20488;-92
2021/07/08 08:48:22;;;;;;;;;;;;;;;;;;4909427;29;19962;-91
2021/07/08 08:50:48;;;;;;;;;;;;;;;;;;4904265;29;19943;-91
2021/07/08 08:53:14;;;;;;;;;;;;;;;;;;4905430;29;21768;-91
2021/07/08 08:55:40;;;;;;;;;;;;;;;;;;4908089;29;19915;-91
2021/07/08 08:58:06;;;;;;;;;;;;;;;;;;4909772;29;19927;-90
2021/07/08 09:00:35;;;;;;;;;;;;;;;;;;4911382;29;19954;-92
2021/07/08 09:03:01;;;;;;;;;;;;;;;;;;4902008;29;19923;-92
2021/07/08 09:05:27;;;;;;;;;;;;;;;;;;4894752;29;19916;-91
2021/07/08 09:07:53;;;;;;;;;;;;;;;;;;4915646;29;19950;-91
2021/07/08 09:10:19;;;;;;;;;;;;;;;;;;4895960;29;19958;-92
2021/07/08 09:12:45;;;;;;;;;;;;;;;;;;4900398;29;19967;-92
2021/07/08 09:15:11;;;;;;;;;;;;;;;;;;4916252;29;19923;-91
2021/07/08 09:17:37;;;;;;;;;;;;;;;;;;4916752;29;19962;-91
2021/07/08 09:20:03;;;;;;;;;;;;;;;;;;4939235;29;20121;-90
2021/07/08 09:22:29;;;;;;;;;;;;;;;;;;4949123;29;19918;-90
2021/07/08 09:24:55;;;;;;;;;;;;;;;;;;4948469;29;19914;-91
2021/07/08 09:27:21;;;;;;;;;;;;;;;;;;4940920;29;19921;-91
2021/07/08 09:29:49;;;;;;;;;;;;;;;;;;4935831;29;20355;-91
2021/07/08 09:32:15;;;;;;;;;;;;;;;;;;4922522;29;19968;-91
2021/07/08 09:34:41;;;;;;;;;;;;;;;;;;4929547;29;19910;-92
2021/07/08 09:37:07;;;;;;;;;;;;;;;;;;4926838;29;19915;-92
2021/07/08 09:39:34;;;;;;;;;;;;;;;;;;4931252;29;19970;-91
2021/07/08 09:41:59;;;;;;;;;;;;;;;;;;4928300;29;19965;-91
2021/07/08 09:44:26;;;;;;;;;;;;;;;;;;4941316;29;19918;-92
2021/07/08 09:46:52;;;;;;;;;;;;;;;;;;4934607;29;19938;-89
2021/07/08 09:49:18;;;;;;;;;;;;;;;;;;4933272;29;19915;-92
2021/07/08 09:51:45;;;;;;;;;;;;;;;;;;4939222;29;19969;-92
2021/07/08 09:54:20;;;;;;;;;;;;;;;;;;4933309;29;19930;-91
2021/07/08 09:56:47;;;;;;;;;;;;;;;;;;4929838;29;20286;-93
2021/07/08 09:59:13;;;;;;;;;;;;;;;;;;4931918;29;19920;-90
2021/07/08 10:01:41;;;;;;;;;;;;;;;;;;4944662;29;19914;-93
2021/07/08 10:04:07;;;;;;;;;;;;;;;;;;4955854;28;19970;-93
2021/07/08 10:06:33;;;;;;;;;;;;;;;;;;4961082;28;19911;-93
2021/07/08 10:08:59;;;;;;;;;;;;;;;;;;4957051;28;20401;-95
2021/07/08 10:11:25;;;;;;;;;;;;;;;;;;4958379;29;20371;-94
2021/07/08 10:13:54;;;;;;;;;;;;;;;;;;4970844;29;19915;-95
2021/07/08 10:16:20;;;;;;;;;;;;;;;;;;4959463;28;19903;-93
2021/07/08 10:18:48;;;;;;;;;;;;;;;;;;4962628;29;19942;-94
2021/07/08 10:21:16;;;;;;;;;;;;;;;;;;4943136;29;19930;-94
2021/07/08 10:23:45;;;;;;;;;;;;;;;;;;5180903;23;19956;-92
2021/07/08 10:26:24;;;;;;;;;;;;;;;;;;4959800;28;19950;-95
2021/07/08 10:29:15;;;;;;;;;;;;;;;;;;4954417;29;20083;-94
2021/07/08 10:39:48;;;;;;;;;;;;;;;;;;5558778;23;20326;-94
2021/07/08 10:42:14;;;;;;;;;;;;;;;;;;4917101;29;19919;-91
2021/07/08 10:44:40;;;;;;;;;;;;;;;;;;4914925;29;19922;-93
2021/07/08 10:47:06;;;;;;;;;;;;;;;;;;4929530;29;19907;-93
2021/07/08 10:49:32;;;;;;;;;;;;;;;;;;4947658;29;19985;-92
2021/07/08 10:51:58;;;;;;;;;;;;;;;;;;4906054;29;19915;-93
2021/07/08 10:54:25;;;;;;;;;;;;;;;;;;4924281;29;19948;-92
2021/07/08 10:56:51;;;;;;;;;;;;;;;;;;4914288;29;19922;-92
2021/07/08 10:59:17;;;;;;;;;;;;;;;;;;4900343;29;19923;-93
2021/07/08 11:01:43;;;;;;;;;;;;;;;;;;4902380;29;19927;-93
2021/07/08 11:04:09;;;;;;;;;;;;;;;;;;4900963;29;20027;-93
2021/07/08 11:06:36;;;;;;;;;;;;;;;;;;4915389;29;19998;-92
2021/07/08 11:09:03;;;;;;;;;;;;;;;;;;4906971;29;19926;-89
2021/07/08 11:11:29;;;;;;;;;;;;;;;;;;4908734;29;19919;-90
2021/07/08 11:13:55;;;;;;;;;;;;;;;;;;4903794;29;20043;-91
2021/07/08 11:16:21;;;;;;;;;;;;;;;;;;4894028;29;20025;-91
2021/07/08 11:18:47;;;;;;;;;;;;;;;;;;4909145;29;19915;-91
2021/07/08 11:21:13;;;;;;;;;;;;;;;;;;4891630;29;20597;-91
2021/07/08 11:23:40;;;;;;;;;;;;;;;;;;4906333;29;19927;-91
2021/07/08 11:26:08;;;;;;;;;;;;;;;;;;4907603;29;19922;-91
2021/07/08 11:28:34;;;;;;;;;;;;;;;;;;4905378;29;19919;-90
2021/07/08 11:31:00;;;;;;;;;;;;;;;;;;4890064;29;19916;-90
2021/07/08 11:33:26;;;;;;;;;;;;;;;;;;4893626;29;19958;-91
2021/07/08 11:35:56;;;;;;;;;;;;;;;;;;4885676;29;19915;-91
2021/07/08 11:38:22;;;;;;;;;;;;;;;;;;4890222;29;20670;-91
2021/07/08 11:40:49;;;;;;;;;;;;;;;;;;4883536;29;19987;-91
2021/07/08 11:43:15;;;;;;;;;;;;;;;;;;4896030;29;19927;-92
2021/07/08 11:45:41;;;;;;;;;;;;;;;;;;4886270;29;19915;-91
2021/07/08 11:48:07;;;;;;;;;;;;;;;;;;4890494;29;20435;-93
2021/07/08 11:50:34;;;;;;;;;;;;;;;;;;4899182;29;19919;-93
2021/07/08 11:53:00;;;;;;;;;;;;;;;;;;4915044;29;19924;-93
2021/07/08 11:55:26;;;;;;;;;;;;;;;;;;4915721;29;20395;-92
2021/07/08 11:57:52;;;;;;;;;;;;;;;;;;4902920;29;19923;-92
2021/07/08 12:00:20;;;;;;;;;;;;;;;;;;4904973;29;20365;-93
2021/07/08 12:02:46;;;;;;;;;;;;;;;;;;4909215;29;19919;-93
2021/07/08 12:05:14;;;;;;;;;;;;;;;;;;4910699;29;19915;-93
2021/07/08 12:07:41;;;;;;;;;;;;;;;;;;4914495;29;19912;-93
2021/07/08 12:10:10;;;;;;;;;;;;;;;;;;4901172;29;19922;-94
2021/07/08 12:12:36;;;;;;;;;;;;;;;;;;4892360;29;20359;-93
2021/07/08 12:15:03;;;;;;;;;;;;;;;;;;4907446;29;19915;-93
2021/07/08 12:17:30;;;;;;;;;;;;;;;;;;4925059;29;19916;-94
2021/07/08 12:19:57;;;;;;;;;;;;;;;;;;4910667;29;19971;-94
2021/07/08 12:22:23;;;;;;;;;;;;;;;;;;4890903;29;20018;-94
2021/07/08 12:24:49;;;;;;;;;;;;;;;;;;4895196;29;20010;-88
2021/07/08 12:27:15;;;;;;;;;;;;;;;;;;4888798;29;20055;-89
2021/07/08 12:29:41;;;;;;;;;;;;;;;;;;4894837;29;19926;-88
2021/07/08 12:32:07;;;;;;;;;;;;;;;;;;4891539;29;19931;-87
2021/07/08 12:34:34;;;;;;;;;;;;;;;;;;4891192;29;19920;-88
2021/07/08 12:37:00;;;;;;;;;;;;;;;;;;4875604;29;19931;-88
2021/07/08 12:39:27;;;;;;;;;;;;;;;;;;4884383;29;20039;-90
2021/07/08 12:41:53;;;;;;;;;;;;;;;;;;4907428;29;19924;-90
2021/07/08 12:44:19;;;;;;;;;;;;;;;;;;4908592;29;19923;-89
2021/07/08 12:46:45;;;;;;;;;;;;;;;;;;4904824;29;19971;-89
2021/07/08 12:49:11;;;;;;;;;;;;;;;;;;4896004;29;19924;-90
2021/07/08 12:51:37;;;;;;;;;;;;;;;;;;4896898;29;19919;-89
2021/07/08 12:54:03;;;;;;;;;;;;;;;;;;4893839;29;19927;-89
2021/07/08 12:56:29;;;;;;;;;;;;;;;;;;4894170;29;19922;-88
2021/07/08 12:58:56;;;;;;;;;;;;;;;;;;4895582;29;20382;-88
2021/07/08 13:01:22;;;;;;;;;;;;;;;;;;4895890;29;19923;-88
2021/07/08 13:03:48;;;;;;;;;;;;;;;;;;4891606;29;19991;-88
2021/07/08 13:06:14;;;;;;;;;;;;;;;;;;4884633;29;19937;-89
2021/07/08 13:08:40;;;;;;;;;;;;;;;;;;4889712;29;19959;-89
2021/07/08 13:11:07;;;;;;;;;;;;;;;;;;4891999;29;19959;-89
2021/07/08 13:13:33;;;;;;;;;;;;;;;;;;4891332;29;19919;-90
2021/07/08 13:15:59;;;;;;;;;;;;;;;;;;4894225;29;19938;-89
2021/07/08 13:18:26;;;;;;;;;;;;;;;;;;4891028;29;20442;-89
2021/07/08 13:20:52;;;;;;;;;;;;;;;;;;4890725;29;19920;-89
2021/07/08 13:23:18;;;;;;;;;;;;;;;;;;4878431;29;19923;-88
2021/07/08 13:25:44;;;;;;;;;;;;;;;;;;4894800;29;20338;-90
2021/07/08 13:28:10;;;;;;;;;;;;;;;;;;4891743;29;20525;-90
2021/07/08 13:30:36;;;;;;;;;;;;;;;;;;4891174;29;19919;-90
2021/07/08 13:33:02;;;;;;;;;;;;;;;;;;4892123;29;19920;-90
2021/07/08 13:35:28;;;;;;;;;;;;;;;;;;4892557;29;19916;-91
2021/07/08 13:37:54;;;;;;;;;;;;;;;;;;4894460;29;19974;-89
2021/07/08 13:40:21;;;;;;;;;;;;;;;;;;4891268;29;20026;-91
2021/07/08 13:42:47;;;;;;;;;;;;;;;;;;4895061;29;19920;-91
2021/07/08 13:45:13;;;;;;;;;;;;;;;;;;4892776;29;19920;-91
2021/07/08 13:47:39;;;;;;;;;;;;;;;;;;4892299;29;19922;-91
2021/07/08 13:50:08;;;;;;;;;;;;;;;;;;4892663;29;19916;-91
2021/07/08 13:52:34;;;;;;;;;;;;;;;;;;4893333;29;19916;-92
2021/07/08 13:55:00;;;;;;;;;;;;;;;;;;4891949;29;19979;-91
2021/07/08 13:57:26;;;;;;;;;;;;;;;;;;4889279;29;19955;-93
2021/07/08 13:59:53;;;;;;;;;;;;;;;;;;4885772;29;20360;-93
2021/07/08 14:02:19;;;;;;;;;;;;;;;;;;4895085;29;19927;-92
2021/07/08 14:04:45;;;;;;;;;;;;;;;;;;4902598;29;19915;-93
2021/07/08 14:07:11;;;;;;;;;;;;;;;;;;4895312;29;19942;-92
2021/07/08 14:09:37;;;;;;;;;;;;;;;;;;4894773;29;19916;-93
2021/07/08 14:12:03;;;;;;;;;;;;;;;;;;4897907;29;19922;-94
2021/07/08 14:14:32;;;;;;;;;;;;;;;;;;4902864;29;19916;-94
2021/07/08 14:16:58;;;;;;;;;;;;;;;;;;4901267;29;19993;-93
2021/07/08 14:19:24;;;;;;;;;;;;;;;;;;4911920;29;19922;-94
2021/07/08 14:21:54;;;;;;;;;;;;;;;;;;4915839;29;19946;-94
2021/07/08 14:24:23;;;;;;;;;;;;;;;;;;4907859;29;19927;-94
2021/07/08 14:26:49;;;;;;;;;;;;;;;;;;4918146;29;19915;-94
2021/07/08 14:29:15;;;;;;;;;;;;;;;;;;4926631;29;19925;-95
2021/07/08 14:31:41;;;;;;;;;;;;;;;;;;4925876;29;19907;-95
2021/07/08 14:42:16;;;;;;;;;;;;;;;;;;5507554;23;19918;-94
2021/07/08 14:44:51;;;;;;;;;;;;;;;;;;4949313;28;19918;-95
2021/07/08 14:47:25;;;;;;;;;;;;;;;;;;4969398;28;19922;-93
2021/07/08 14:49:54;;;;;;;;;;;;;;;;;;4959660;28;19929;-94
2021/07/08 15:30:18;;;;;;;;;;;;;;;;;;5661151;23;20373;-96
2021/07/08 15:48:56;;;;;;;;;;;;;;;;;;5613118;23;19951;-95
2021/07/08 15:51:25;;;;;;;;;;;;;;;;;;4908816;29;19983;-96
2021/07/08 15:56:46;;;;;;;;;;;;;;;;;;4919532;29;19943;-95
2021/07/08 15:59:19;;;;;;;;;;;;;;;;;;4899733;29;19916;-96
2021/07/08 16:01:45;;;;;;;;;;;;;;;;;;4902936;29;19927;-96
2021/07/08 16:04:12;;;;;;;;;;;;;;;;;;4922480;29;19943;-96
2021/07/08 16:06:40;;;;;;;;;;;;;;;;;;4898460;29;19966;-96
2021/07/08 16:09:08;;;;;;;;;;;;;;;;;;4894425;29;19915;-94
2021/07/08 16:11:34;;;;;;;;;;;;;;;;;;4910073;29;20592;-96
2021/07/08 16:14:00;;;;;;;;;;;;;;;;;;4908752;29;19899;-96
2021/07/08 16:16:26;;;;;;;;;;;;;;;;;;4902488;29;19947;-95
2021/07/08 16:18:52;;;;;;;;;;;;;;;;;;4904822;29;19938;-96
2021/07/08 16:29:25;;;;;;;;;;;;;;;;;;5006846;23;19961;-95
2021/07/08 16:40:11;;;;;;;;;;;;;;;;;;5266098;23;19928;-92
2021/07/08 16:42:45;;;;;;;;;;;;;;;;;;4983137;28;19910;-94
2021/07/08 16:45:12;;;;;;;;;;;;;;;;;;4996975;28;19908;-95
2021/07/08 16:50:24;;;;;;;;;;;;;;;;;;5290633;23;19945;-93
2021/07/08 17:01:05;;;;;;;;;;;;;;;;;;5102935;23;19931;-93
2021/07/08 17:03:34;;;;;;;;;;;;;;;;;;4946126;28;19950;-93
2021/07/08 17:06:03;;;;;;;;;;;;;;;;;;5444335;23;20164;-94
2021/07/08 17:08:31;;;;;;;;;;;;;;;;;;4959392;28;19927;-95
2021/07/08 17:10:57;;;;;;;;;;;;;;;;;;4965559;29;19922;-95
2021/07/08 17:13:33;;;;;;;;;;;;;;;;;;4965707;29;19925;-94
2021/07/08 17:24:02;;;;;;;;;;;;;;;;;;4960800;28;19910;-96
2021/07/08 17:26:28;;;;;;;;;;;;;;;;;;5260929;23;19955;-93
2021/07/08 17:28:57;;;;;;;;;;;;;;;;;;4922273;29;19915;-89
2021/07/08 17:31:24;;;;;;;;;;;;;;;;;;4899473;29;20331;-87
2021/07/08 17:33:50;;;;;;;;;;;;;;;;;;4885355;29;19998;-85
2021/07/08 17:36:19;;;;;;;;;;;;;;;;;;4888664;29;20022;-85
2021/07/08 17:38:45;;;;;;;;;;;;;;;;;;4889284;29;19922;-85
2021/07/08 17:41:11;;;;;;;;;;;;;;;;;;4908142;29;20367;-86
2021/07/08 17:43:38;;;;;;;;;;;;;;;;;;4905209;29;19919;-85
2021/07/08 17:46:06;;;;;;;;;;;;;;;;;;4908884;29;19919;-87
2021/07/08 17:48:32;;;;;;;;;;;;;;;;;;4904128;29;19919;-86
2021/07/08 17:50:58;;;;;;;;;;;;;;;;;;4910434;29;20379;-88
2021/07/08 17:53:24;;;;;;;;;;;;;;;;;;4907903;29;20371;-82
2021/07/08 17:55:51;;;;;;;;;;;;;;;;;;4891694;29;19951;-80
2021/07/08 17:58:17;;;;;;;;;;;;;;;;;;4907460;29;20466;-80
2021/07/08 18:00:43;;;;;;;;;;;;;;;;;;4910272;29;19915;-81
2021/07/08 18:03:09;;;;;;;;;;;;;;;;;;4898488;29;19927;-82
2021/07/08 18:05:35;;;;;;;;;;;;;;;;;;4904976;29;19926;-81
2021/07/08 18:08:02;;;;;;;;;;;;;;;;;;4906259;29;19923;-82
2021/07/08 18:10:30;;;;;;;;;;;;;;;;;;4902330;29;19923;-82
2021/07/08 18:12:58;;;;;;;;;;;;;;;;;;4891363;29;19970;-84
2021/07/08 18:15:27;;;;;;;;;;;;;;;;;;4902256;29;19970;-89
2021/07/08 18:17:53;;;;;;;;;;;;;;;;;;4905675;29;20484;-88
2021/07/08 18:20:19;;;;;;;;;;;;;;;;;;4909752;29;19946;-89
2021/07/08 18:22:45;;;;;;;;;;;;;;;;;;4896893;29;19966;-89
2021/07/08 18:25:11;;;;;;;;;;;;;;;;;;4889136;29;19993;-87
2021/07/08 18:27:37;;;;;;;;;;;;;;;;;;4885943;29;19926;-88
2021/07/08 18:30:03;;;;;;;;;;;;;;;;;;4905196;29;19919;-88
2021/07/08 18:32:31;;;;;;;;;;;;;;;;;;4887586;29;19916;-88